Pagrindinis puslapis
METAR-TAF:

METAR-TAF

Oro uostai :

Venas, Mikronezija

platuma: 07-28N, ilguma: 151-51E, Aukštis: 3 m

Dabartinis oras

Ataskaita buvo paskelbta 1 valandą ir 7 minutes, ne 00:50 UTC
Vėjas 12 kt iš Šiaurės Rytų
Temperatūra 30°C
Drėgmė 79%
Slėgis 1010 hPa
Matomumas: 24.1 km
Mažai debesys ne aukštis 1400 ft
Su prošvaistėmis ne aukštis 28000 ft

METAR: PTKK 260050Z 04012KT 15SM FEW014 BKN280 30/26 A2982 RMK SLP100 T02990259

Laikas: 11:57 (01:57 UTC)

Prognozė

Ataskaita buvo paskelbta 2 valandos ir 18 minutes, ne 23:39 UTC
Prognozė galioja nuo 26 metu 00 UTC su 26 metu 24 UTC
Vėjas 13 kt iš Šiaurės Rytų
Matomumas: 10 km
Išsisklaidę debesys ne aukštis 2000 ft
Išsisklaidę debesys ne aukštis 5000 ft

TAF: PTKK 252339Z 2600/2624 05013KT P6SM SCT020 SCT050

Orai ataskaitas ir orų prognozės (METAR, TAF).

turimą stotys yra geltonos ir raudonos taškus žemėlapyje.

Perkelti pele per norėdami pamatyti stoties vardą.

Tada spustelėkite, norėdami matyti oro stebėjimo ir prognozės.

Norėdami pakeisti žemėlapį: spustelėkite ant žalios mygtukų su juodo kryžiaus žemyn,; žalią mygtuką su brūkšneliu, jei norite nutolinti; arba žalių rodyklių gretimoms žemėlapius.


METAR-TAF: